Time;durP1;ratioP1;P1;durP2;ratioP2;P2;SDS_P1;SDS_P2;PMS_P1;PMS_P2;Temp;Humidity;BMP_temperature;BMP_pressure;BME280_temperature;BME280_humidity;BME280_pressure;Samples;Min_cycle;Max_cycle;Signal;HPM_P1;HPM_P2
2021/11/12 00:04:29;;;;;;;6.18;3.50;;;;;;;-145.06;100.00;60892.56;4882766;28;20439;-88
2021/11/12 00:12:36;;;;;;;6.28;3.25;;;;;;;-145.06;100.00;60892.56;4866607;28;20056;-88
2021/11/12 00:15:15;;;;;;;6.38;3.83;;;;;;;-145.06;100.00;60892.56;4878560;28;20037;-89
2021/11/12 00:17:55;;;;;;;6.27;3.70;;;;;;;-145.06;100.00;60892.56;4878060;28;20021;-88
2021/11/12 00:20:34;;;;;;;7.22;3.80;;;;;;;-145.06;100.00;60892.56;4872470;28;20026;-88
2021/11/12 00:23:14;;;;;;;6.40;3.67;;;;;;;4.39;100.00;60892.56;4883734;28;20021;-89
2021/11/12 00:25:53;;;;;;;;;;;;;;;-145.06;100.00;60892.56;4877124;28;20029;-87
2021/11/12 00:28:37;;;;;;;5.03;2.90;;;;;;;-145.06;100.00;60892.56;4880391;28;19908;-89
2021/11/12 00:31:33;;;;;;;7.82;4.18;;;;;;;-145.06;100.00;60892.56;4882962;28;20033;-88
2021/11/12 00:34:44;;;;;;;6.22;3.80;;;;;;;4.07;100.00;60892.56;4883509;28;20478;-89
2021/11/12 00:40:21;;;;;;;5.43;3.53;;;;;;;10.68;100.00;60892.56;4885524;28;20024;-89
2021/11/12 00:45:52;;;;;;;7.03;4.23;;;;;;;-145.06;100.00;60892.56;4884732;28;20028;-89
2021/11/12 00:48:34;;;;;;;7.05;3.78;;;;;;;-145.06;100.00;60892.56;4886507;28;20270;-88
2021/11/12 00:51:19;;;;;;;5.85;3.47;;;;;;;10.68;100.00;60892.56;4883302;28;20025;-88
2021/11/12 00:56:40;;;;;;;6.47;3.85;;;;;;;-145.06;100.00;60892.56;4879821;28;20111;-88
2021/11/12 00:59:19;;;;;;;6.97;3.60;;;;;;;-145.06;100.00;60892.56;4888293;28;20025;-88
2021/11/12 01:01:59;;;;;;;8.30;4.20;;;;;;;-145.06;100.00;60892.56;4887351;28;20033;-88
2021/11/12 01:04:38;;;;;;;7.13;4.20;;;;;;;21.08;100.00;60892.56;4879573;28;20486;-89
2021/11/12 01:07:17;;;;;;;6.10;3.85;;;;;;;-145.06;100.00;60892.56;4885883;28;20040;-89
2021/11/12 01:09:57;;;;;;;5.93;3.78;;;;;;;-145.06;100.00;60892.56;4879628;28;20033;-89
2021/11/12 01:12:37;;;;;;;6.10;3.47;;;;;;;-145.06;100.00;60892.56;4876183;28;20029;-89
2021/11/12 01:15:18;;;;;;;7.13;3.80;;;;;;;-145.06;100.00;60892.56;4881411;28;20029;-90
2021/11/12 01:17:57;;;;;;;6.03;3.72;;;;;;;-145.06;100.00;60892.56;4886644;28;20020;-89
2021/11/12 01:20:36;;;;;;;7.40;3.88;;;;;;;-145.06;100.00;60892.56;4873898;28;20360;-89
2021/11/12 01:23:16;;;;;;;6.60;3.83;;;;;;;-145.06;100.00;60892.56;4876858;28;20108;-90
2021/11/12 01:25:55;;;;;;;5.30;3.30;;;;;;;-145.06;100.00;60892.56;4864423;28;20025;-88
2021/11/12 01:28:35;;;;;;;5.72;3.45;;;;;;;-145.06;100.00;60892.56;4868432;28;20047;-89
2021/11/12 01:31:14;;;;;;;6.13;3.75;;;;;;;-145.06;100.00;60892.56;4875155;28;20037;-89
2021/11/12 01:33:55;;;;;;;6.03;3.53;;;;;;;-145.06;100.00;60892.56;4881276;28;20024;-89
2021/11/12 01:36:38;;;;;;;6.00;3.40;;;;;;;21.08;100.00;60892.56;4876137;28;20379;-89
2021/11/12 01:39:21;;;;;;;7.07;3.58;;;;;;;-145.06;100.00;60892.56;4885858;28;20124;-89
2021/11/12 01:42:00;;;;;;;7.50;4.03;;;;;;;-145.06;100.00;60892.56;4886020;28;20028;-88
2021/11/12 01:44:46;;;;;;;5.97;3.53;;;;;;;-145.06;100.00;60892.56;4885720;28;20013;-88
2021/11/12 01:48:15;;;;;;;5.68;3.38;;;;;;;-145.06;100.00;60892.56;4886297;28;20029;-89
2021/11/12 01:50:31;;;;;;;6.00;3.33;;;;;;;-145.06;100.00;60892.56;4876457;28;20427;-89
2021/11/12 01:53:13;;;;;;;6.93;3.55;;;;;;;5.49;100.00;60892.56;4870445;28;20483;-88
2021/11/12 01:56:42;;;;;;;5.13;3.17;;;;;;;-145.06;100.00;60892.56;4892992;28;20036;-89
2021/11/12 02:01:47;;;;;;;5.82;2.97;;;;;;;2.88;100.00;60892.56;4872308;28;20036;-89
2021/11/12 02:04:30;;;;;;;7.47;3.50;;;;;;;-145.06;100.00;60892.56;4865537;28;20037;-88
2021/11/12 02:07:11;;;;;;;6.22;3.38;;;;;;;2.89;100.00;60892.56;4870161;28;20474;-89
2021/11/12 02:09:50;;;;;;;7.00;3.85;;;;;;;10.68;100.00;60892.56;4866307;28;20068;-90
2021/11/12 02:12:33;;;;;;;6.82;3.60;;;;;;;2.78;100.00;60892.56;4875912;28;20387;-90
2021/11/12 02:15:13;;;;;;;5.88;3.65;;;;;;;187.52;100.00;60892.56;4883258;28;20028;-89
2021/11/12 02:18:05;;;;;;;6.97;4.00;;;;;;;2.73;100.00;60892.56;4875265;28;20383;-89
2021/11/12 02:21:00;;;;;;;6.22;3.70;;;;;;;-145.06;100.00;60892.56;4877116;28;20025;-88
2021/11/12 02:23:46;;;;;;;6.30;3.58;;;;;;;-145.06;100.00;60892.56;4872318;28;20025;-89
2021/11/12 02:26:28;;;;;;;5.55;3.42;;;;;;;-145.06;100.00;60892.56;4897902;28;20060;-89
2021/11/12 02:29:09;;;;;;;6.18;3.25;;;;;;;-145.06;100.00;60892.56;4865724;28;20530;-89
2021/11/12 02:31:49;;;;;;;6.50;3.67;;;;;;;2.73;100.00;60892.56;4878468;28;20061;-89
2021/11/12 02:34:28;;;;;;;6.85;3.85;;;;;;;-145.06;100.00;60892.56;4878860;28;20060;-89
2021/11/12 02:37:07;;;;;;;6.35;3.75;;;;;;;-145.06;100.00;60892.56;4869945;28;20037;-89
2021/11/12 02:39:46;;;;;;;5.37;3.23;;;;;;;-145.06;100.00;60892.56;4878005;28;20032;-89
2021/11/12 02:42:26;;;;;;;6.03;3.67;;;;;;;-145.06;100.00;60892.56;4875125;28;20268;-88
2021/11/12 02:45:06;;;;;;;4.85;2.85;;;;;;;-145.06;100.00;60892.56;4878963;28;20028;-90
2021/11/12 02:47:45;;;;;;;6.28;3.38;;;;;;;-145.06;100.00;60892.56;4869403;28;20021;-88
2021/11/12 02:50:24;;;;;;;7.10;3.80;;;;;;;2.46;100.00;60892.56;4875862;28;20037;-89
2021/11/12 02:53:08;;;;;;;5.60;3.53;;;;;;;-145.06;100.00;60892.56;4881860;28;20021;-89
2021/11/12 02:55:48;;;;;;;5.35;3.10;;;;;;;-145.06;100.00;60892.56;4885897;28;20032;-89
2021/11/12 02:58:27;;;;;;;5.68;3.20;;;;;;;-145.06;100.00;60892.56;4876691;28;20037;-88
2021/11/12 03:01:08;;;;;;;4.43;3.03;;;;;;;-145.06;100.00;60892.56;4881040;28;20029;-89
2021/11/12 03:03:47;;;;;;;4.53;3.10;;;;;;;-145.06;100.00;60892.56;4879476;28;20029;-89
2021/11/12 03:06:27;;;;;;;7.22;3.85;;;;;;;-145.06;100.00;60892.56;4877848;28;20462;-90
2021/11/12 03:09:08;;;;;;;5.28;3.40;;;;;;;-145.06;100.00;60892.56;4878535;28;20033;-90
2021/11/12 03:11:47;;;;;;;6.70;3.30;;;;;;;-145.06;100.00;60892.56;4885004;28;20020;-88
2021/11/12 03:14:27;;;;;;;7.38;3.60;;;;;;;-145.06;100.00;60892.56;4875810;28;20029;-89
2021/11/12 03:17:06;;;;;;;5.13;3.28;;;;;;;10.68;100.00;60892.56;4882443;28;20029;-90
2021/11/12 03:19:46;;;;;;;6.63;3.73;;;;;;;-145.06;100.00;60892.56;4877871;28;20029;-89
2021/11/12 03:22:32;;;;;;;6.35;3.28;;;;;;;5.49;100.00;60892.56;4875685;28;20052;-88
2021/11/12 03:25:22;;;;;;;7.00;3.85;;;;;;;10.68;100.00;60892.56;4884013;28;20380;-89
2021/11/12 04:00:18;;;;;;;4.75;2.72;;;;;;;-145.06;100.00;60892.56;4884218;28;20219;-89
2021/11/12 04:20:54;;;;;;;2.83;1.98;;;;;;;-145.06;100.00;60892.56;4865728;28;20029;-90
2021/11/12 05:57:34;;;;;;;2.50;1.80;;;;;;;-145.06;100.00;60892.56;4871352;28;20368;-89
2021/11/12 06:00:14;;;;;;;;;;;;;;;-145.06;100.00;60892.56;4868272;28;20033;-89
2021/11/12 06:02:53;;;;;;;2.47;1.80;;;;;;;-145.06;100.00;60892.56;4873273;28;19912;-88
2021/11/12 06:05:32;;;;;;;3.13;2.05;;;;;;;-145.06;100.00;60892.56;4871679;28;20033;-90
2021/11/12 06:08:12;;;;;;;2.50;1.75;;;;;;;-145.06;100.00;60892.56;4869539;28;20034;-89
2021/11/12 06:10:51;;;;;;;3.58;1.92;;;;;;;-145.06;100.00;60892.56;4873231;28;20053;-89
2021/11/12 06:13:30;;;;;;;3.15;1.92;;;;;;;1.66;100.00;60892.56;4869094;28;20360;-88
2021/11/12 06:16:10;;;;;;;2.80;2.17;;;;;;;-145.06;100.00;60892.56;4879162;28;20029;-89
2021/11/12 06:18:49;;;;;;;2.90;2.00;;;;;;;-145.06;100.00;60892.56;4867798;28;20056;-87
2021/11/12 06:21:29;;;;;;;3.10;1.83;;;;;;;-145.06;100.00;60892.56;4869175;28;20478;-88
2021/11/12 06:24:10;;;;;;;3.05;1.95;;;;;;;-145.06;100.00;60892.56;4870961;28;20495;-89
2021/11/12 06:26:49;;;;;;;3.63;2.38;;;;;;;-145.06;100.00;60892.56;4870034;28;20060;-88
2021/11/12 06:29:29;;;;;;;3.80;2.50;;;;;;;-145.06;100.00;60892.56;4872799;28;20025;-88
2021/11/12 06:32:08;;;;;;;3.50;2.50;;;;;;;-145.06;100.00;60892.56;4872971;28;20060;-89
2021/11/12 06:34:47;;;;;;;3.40;2.50;;;;;;;-145.06;100.00;60892.56;4867503;28;20025;-89
2021/11/12 06:37:26;;;;;;;3.85;2.58;;;;;;;-145.06;100.00;60892.56;4870301;28;20300;-88
2021/11/12 06:40:06;;;;;;;5.15;3.00;;;;;;;-145.06;100.00;60892.56;4878991;28;20483;-89
2021/11/12 06:43:09;;;;;;;5.30;2.80;;;;;;;-145.06;100.00;60892.56;4899447;28;20124;-88
2021/11/12 06:51:44;;;;;;;4.30;2.60;;;;;;;-145.06;100.00;60892.56;4867875;28;20064;-89
2021/11/12 06:54:23;;;;;;;4.30;2.35;;;;;;;1.65;100.00;60892.56;4867591;28;20065;-88
2021/11/12 06:57:02;;;;;;;3.92;2.75;;;;;;;-145.06;100.00;60892.56;4868928;28;20709;-89
2021/11/12 06:59:41;;;;;;;5.37;2.80;;;;;;;-145.06;100.00;60892.56;4865272;28;20029;-89
2021/11/12 07:02:22;;;;;;;4.47;2.47;;;;;;;1.67;100.00;60892.56;4866062;28;20037;-88
2021/11/12 07:05:02;;;;;;;3.58;2.13;;;;;;;-145.06;100.00;60892.56;4864593;28;20617;-88
2021/11/12 07:07:41;;;;;;;3.88;2.50;;;;;;;5.49;100.00;60892.56;4857366;28;20033;-89
2021/11/12 07:10:20;;;;;;;;;;;;;;;-145.06;100.00;60892.56;4862030;28;20044;-89
2021/11/12 07:12:59;;;;;;;2.90;1.73;;;;;;;1.75;100.00;60892.56;4873462;28;20255;-89
2021/11/12 07:15:39;;;;;;;4.55;2.83;;;;;;;-145.06;100.00;60892.56;4871387;28;20111;-89
2021/11/12 07:18:20;;;;;;;3.55;2.47;;;;;;;-145.06;100.00;60892.56;4875626;28;20045;-89
2021/11/12 07:21:00;;;;;;;2.80;1.83;;;;;;;-145.06;100.00;60892.56;4871794;28;20131;-89
2021/11/12 07:23:38;;;;;;;3.42;2.38;;;;;;;-145.06;100.00;60892.56;4879216;28;20518;-88
2021/11/12 07:26:17;;;;;;;2.33;1.70;;;;;;;-145.06;100.00;60892.56;4877772;28;20467;-89
2021/11/12 07:28:57;;;;;;;2.90;1.73;;;;;;;1.80;100.00;60892.56;4876515;28;20064;-89
2021/11/12 07:31:38;;;;;;;;;;;;;;;-145.06;100.00;60892.56;4878111;28;20487;-88
2021/11/12 07:34:18;;;;;;;2.95;1.77;;;;;;;-145.06;100.00;60892.56;4878036;28;20359;-89
2021/11/12 07:37:18;;;;;;;3.08;1.92;;;;;;;-145.06;100.00;60892.56;4879749;28;20033;-89
2021/11/12 07:39:58;;;;;;;3.00;2.40;;;;;;;-145.06;100.00;60892.56;4882770;28;20029;-89
2021/11/12 07:47:59;;;;;;;3.30;2.08;;;;;;;-145.06;100.00;60892.56;4889722;28;20099;-89
2021/11/12 07:50:38;;;;;;;3.55;2.35;;;;;;;-145.06;100.00;60892.56;4879727;28;20029;-88
2021/11/12 07:53:17;;;;;;;;;;;;;;;-145.06;100.00;60892.56;4875984;28;20381;-88
2021/11/12 07:55:56;;;;;;;3.33;2.00;;;;;;;-145.06;100.00;60892.56;4885338;28;20003;-89
2021/11/12 07:58:35;;;;;;;2.75;1.95;;;;;;;-145.06;100.00;60892.56;4882399;28;20020;-88
2021/11/12 08:01:15;;;;;;;3.27;2.03;;;;;;;-145.06;100.00;60892.56;4874921;28;20115;-89
2021/11/12 08:03:56;;;;;;;2.75;2.00;;;;;;;-145.06;100.00;60892.56;4874601;28;20036;-87
2021/11/12 08:06:37;;;;;;;3.97;2.28;;;;;;;-145.06;100.00;60892.56;4890997;28;20029;-88
2021/11/12 08:09:19;;;;;;;2.55;1.88;;;;;;;-145.06;100.00;60892.56;4891266;28;20462;-88
2021/11/12 08:12:07;;;;;;;2.95;2.10;;;;;;;-145.06;100.00;60892.56;4886016;28;20041;-87
2021/11/12 08:18:04;;;;;;;2.63;1.90;;;;;;;-145.06;100.00;60892.56;4880586;28;20056;-88
2021/11/12 08:20:54;;;;;;;2.75;2.20;;;;;;;-145.06;100.00;60892.56;4883056;28;20107;-87
2021/11/12 08:23:52;;;;;;;4.45;2.65;;;;;;;-145.06;100.00;60892.56;4877597;28;20021;-87
2021/11/12 08:32:44;;;;;;;3.05;2.42;;;;;;;-145.06;100.00;60892.56;4875991;28;20033;-87
2021/11/12 08:39:01;;;;;;;3.83;2.30;;;;;;;-145.06;100.00;60892.56;4885907;28;20025;-87
2021/11/12 08:41:16;;;;;;;3.40;2.15;;;;;;;-145.06;100.00;60892.56;4884826;28;20110;-87
2021/11/12 08:43:58;;;;;;;3.40;2.40;;;;;;;-145.06;100.00;60892.56;4886949;28;20470;-88
2021/11/12 08:46:44;;;;;;;3.38;2.15;;;;;;;-145.06;100.00;60892.56;4878027;28;20056;-88
2021/11/12 08:49:35;;;;;;;3.13;2.20;;;;;;;-145.06;100.00;60892.56;4884618;28;20021;-87
2021/11/12 08:52:17;;;;;;;2.83;1.98;;;;;;;2.69;100.00;60892.56;4873770;28;20033;-87
2021/11/12 08:54:56;;;;;;;2.60;2.03;;;;;;;-145.06;100.00;60892.56;4883978;28;20028;-86
2021/11/12 08:57:35;;;;;;;3.10;2.40;;;;;;;2.81;100.00;60892.56;4884269;28;20029;-88
2021/11/12 09:00:14;;;;;;;3.25;2.00;;;;;;;2.81;100.00;60892.56;4871597;28;20033;-87
2021/11/12 09:02:54;;;;;;;3.40;2.30;;;;;;;-145.06;100.00;60892.56;4882240;28;20024;-87
2021/11/12 09:05:34;;;;;;;3.90;2.40;;;;;;;-145.06;100.00;60892.56;4867688;28;20100;-88
2021/11/12 09:08:13;;;;;;;2.85;2.13;;;;;;;-145.06;100.00;60892.56;4885728;28;20096;-86
2021/11/12 09:10:52;;;;;;;3.40;2.38;;;;;;;-145.06;100.00;60892.56;4887302;28;20025;-88
2021/11/12 09:13:57;;;;;;;3.47;2.40;;;;;;;-145.06;100.00;60892.56;4880380;28;20051;-88
2021/11/12 09:16:35;;;;;;;3.47;2.28;;;;;;;-145.06;100.00;60892.56;4883738;28;20021;-88
2021/11/12 09:19:15;;;;;;;3.97;2.58;;;;;;;-145.06;100.00;60892.56;4885380;28;20033;-88
2021/11/12 09:21:54;;;;;;;;;;;;;;;-145.06;100.00;60892.56;4879920;28;20028;-88
2021/11/12 09:24:33;;;;;;;3.53;2.27;;;;;;;-145.06;100.00;60892.56;4883778;28;20358;-88
2021/11/12 09:27:13;;;;;;;3.80;2.55;;;;;;;-145.06;100.00;60892.56;4875268;28;20029;-87
2021/11/12 09:29:52;;;;;;;;;;;;;;;-145.06;100.00;60892.56;4872286;28;20032;-89
2021/11/12 09:32:31;;;;;;;2.88;2.03;;;;;;;-145.06;100.00;60892.56;4878672;28;19908;-88
2021/11/12 09:35:10;;;;;;;2.73;1.90;;;;;;;-145.06;100.00;60892.56;4885103;28;20387;-87
2021/11/12 09:37:49;;;;;;;3.65;2.28;;;;;;;-145.06;100.00;60892.56;4874665;28;20523;-88
2021/11/12 09:40:29;;;;;;;4.47;2.45;;;;;;;-145.06;100.00;60892.56;4884160;28;20076;-88
2021/11/12 09:43:08;;;;;;;2.75;2.17;;;;;;;-145.06;100.00;60892.56;4883819;28;20025;-86
2021/11/12 09:45:47;;;;;;;4.55;2.95;;;;;;;-145.06;100.00;60892.56;4886255;28;20025;-88
2021/11/12 09:48:27;;;;;;;3.85;2.75;;;;;;;-145.06;100.00;60892.56;4877176;28;20017;-87
2021/11/12 09:51:08;;;;;;;5.88;2.92;;;;;;;-145.06;100.00;60892.56;4883899;28;20072;-89
2021/11/12 09:53:48;;;;;;;4.68;3.20;;;;;;;-145.06;100.00;60892.56;4882127;28;20028;-88
2021/11/12 09:56:26;;;;;;;3.80;2.75;;;;;;;-145.06;100.00;60892.56;4876775;28;20475;-88
2021/11/12 09:59:05;;;;;;;4.63;3.07;;;;;;;-145.06;100.00;60892.56;4880830;28;20029;-87
2021/11/12 10:01:44;;;;;;;4.43;3.08;;;;;;;-145.06;100.00;60892.56;4874361;28;20263;-87
2021/11/12 10:04:24;;;;;;;5.13;3.05;;;;;;;-145.06;100.00;60892.56;4882782;28;20116;-89
2021/11/12 10:07:10;;;;;;;7.10;3.25;;;;;;;5.49;100.00;60892.56;4869962;28;20029;-88
2021/11/12 10:10:08;;;;;;;5.18;3.20;;;;;;;-145.06;100.00;60892.56;4878806;28;20036;-87
2021/11/12 10:12:49;;;;;;;5.17;3.07;;;;;;;-145.06;100.00;60892.56;4870630;28;20032;-89
2021/11/12 10:15:30;;;;;;;4.35;2.78;;;;;;;-145.06;100.00;60892.56;4874284;28;20275;-87
2021/11/12 10:18:13;;;;;;;5.25;3.40;;;;;;;-145.06;100.00;60892.56;4876984;28;20025;-87
2021/11/12 10:20:58;;;;;;;5.15;3.53;;;;;;;-145.06;100.00;60892.56;4882479;28;20029;-87
2021/11/12 10:23:42;;;;;;;6.35;3.63;;;;;;;-145.06;100.00;60892.56;4883072;28;20024;-87
2021/11/12 10:26:28;;;;;;;5.20;3.17;;;;;;;21.08;100.00;60892.56;4885306;28;20029;-88
2021/11/12 10:29:11;;;;;;;4.95;3.58;;;;;;;-145.06;100.00;60892.56;4891184;28;20630;-89
2021/11/12 10:31:54;;;;;;;5.18;3.22;;;;;;;-145.06;100.00;60892.56;4874330;28;20025;-88
2021/11/12 10:34:37;;;;;;;4.60;3.38;;;;;;;-145.06;100.00;60892.56;4873321;28;20490;-88
2021/11/12 10:37:23;;;;;;;5.07;3.47;;;;;;;-145.06;100.00;60892.56;4874531;28;20025;-88
2021/11/12 10:40:10;;;;;;;5.80;3.92;;;;;;;-145.06;100.00;60892.56;4883113;28;20052;-88
2021/11/12 10:42:53;;;;;;;4.18;3.30;;;;;;;6.62;100.00;60892.56;4877939;28;20025;-88
2021/11/12 10:45:34;;;;;;;5.75;3.75;;;;;;;-145.06;100.00;60892.56;4872581;28;20103;-88
2021/11/12 10:48:13;;;;;;;6.28;3.97;;;;;;;-145.06;100.00;60892.56;4882929;28;20514;-88
2021/11/12 10:50:52;;;;;;;5.45;3.67;;;;;;;-145.06;100.00;60892.56;4882949;28;20025;-89
2021/11/12 10:53:48;;;;;;;5.95;4.05;;;;;;;-145.06;100.00;60892.56;4873307;28;20036;-88
2021/11/12 10:56:47;;;;;;;5.82;3.92;;;;;;;-145.06;100.00;60892.56;4878646;28;20115;-89
2021/11/12 10:59:26;;;;;;;6.43;3.87;;;;;;;-145.06;100.00;60892.56;4876486;28;20025;-88
2021/11/12 11:02:05;;;;;;;5.90;3.97;;;;;;;-145.06;100.00;60892.56;4888586;28;20475;-89
2021/11/12 11:04:44;;;;;;;5.60;4.03;;;;;;;-145.06;100.00;60892.56;4889374;28;20029;-89
2021/11/12 11:07:25;;;;;;;6.10;4.03;;;;;;;-145.06;100.00;60892.56;4870242;28;20272;-89
2021/11/12 11:10:07;;;;;;;4.75;3.38;;;;;;;-145.06;100.00;60892.56;4887483;28;20107;-90
2021/11/12 11:12:46;;;;;;;6.32;4.13;;;;;;;10.68;100.00;60892.56;4886703;28;20037;-90
2021/11/12 11:15:32;;;;;;;6.10;4.10;;;;;;;9.33;100.00;60892.56;4879794;28;20028;-89
2021/11/12 11:21:24;;;;;;;5.85;3.90;;;;;;;-145.06;100.00;60892.56;4880179;28;20061;-89
2021/11/12 11:24:07;;;;;;;6.00;3.97;;;;;;;-145.06;100.00;60892.56;4884619;28;20368;-89
2021/11/12 11:26:48;;;;;;;6.32;3.97;;;;;;;-145.06;100.00;60892.56;4889490;28;20020;-90
2021/11/12 11:29:27;;;;;;;4.55;3.33;;;;;;;-145.06;100.00;60892.56;4878249;28;20017;-89
2021/11/12 11:32:07;;;;;;;5.90;3.78;;;;;;;-145.06;100.00;60892.56;4881467;28;20024;-89
2021/11/12 11:34:47;;;;;;;5.65;3.78;;;;;;;-145.06;100.00;60892.56;4870558;28;20040;-90
2021/11/12 11:37:26;;;;;;;4.57;3.67;;;;;;;-145.06;100.00;60892.56;4872925;28;20025;-89
2021/11/12 11:40:07;;;;;;;5.55;3.95;;;;;;;-145.06;100.00;60892.56;4886604;28;20608;-89
2021/11/12 11:42:47;;;;;;;6.13;3.92;;;;;;;-145.06;100.00;60892.56;4885257;28;20367;-90
2021/11/12 11:45:25;;;;;;;4.93;3.78;;;;;;;-145.06;100.00;60892.56;4872686;28;20111;-89
2021/11/12 11:48:06;;;;;;;5.38;3.78;;;;;;;-145.06;100.00;60892.56;4881404;28;20025;-89
2021/11/12 11:50:57;;;;;;;5.15;3.65;;;;;;;-145.06;100.00;60892.56;4889395;28;20028;-89
2021/11/12 11:53:43;;;;;;;5.25;3.53;;;;;;;-145.06;100.00;60892.56;4875846;28;20044;-89
2021/11/12 11:56:31;;;;;;;5.05;3.53;;;;;;;-145.06;100.00;60892.56;4888809;28;20068;-89
2021/11/12 11:59:18;;;;;;;5.15;3.33;;;;;;;-145.06;100.00;60892.56;4884823;28;20025;-89
2021/11/12 12:01:59;;;;;;;4.95;3.40;;;;;;;-145.06;100.00;60892.56;4858623;28;20356;-89
2021/11/12 12:04:49;;;;;;;4.65;3.40;;;;;;;-145.06;100.00;60892.56;4875531;28;20029;-88
2021/11/12 12:07:40;;;;;;;4.80;3.10;;;;;;;11.84;100.00;60892.56;4867617;28;20745;-89
2021/11/12 12:10:25;;;;;;;4.60;3.25;;;;;;;11.91;100.00;60892.56;4885971;28;20032;-89
2021/11/12 12:13:04;;;;;;;5.05;3.33;;;;;;;-145.06;100.00;60892.56;4877542;28;20372;-90
2021/11/12 12:15:45;;;;;;;4.78;3.67;;;;;;;-145.06;100.00;60892.56;4877028;28;20028;-89
2021/11/12 12:18:26;;;;;;;4.97;3.25;;;;;;;-145.06;100.00;60892.56;4885693;28;20037;-89
2021/11/12 12:22:04;;;;;;;4.60;3.08;;;;;;;-145.06;100.00;60892.56;4874078;28;20056;-88
2021/11/12 12:30:54;;;;;;;;;;;;;;;-145.06;100.00;60892.56;4872276;28;20025;-89
2021/11/12 12:40:47;;;;;;;4.20;2.78;;;;;;;-145.06;100.00;60892.56;4866933;28;20025;-89
2021/11/12 13:26:05;;;;;;;4.40;2.75;;;;;;;-145.06;100.00;60892.56;4881746;28;20096;-89
2021/11/12 13:28:45;;;;;;;5.30;3.60;;;;;;;-145.06;100.00;60892.56;4861848;28;20033;-89
2021/11/12 13:31:24;;;;;;;4.15;3.13;;;;;;;-145.06;100.00;60892.56;4868025;28;20104;-90
2021/11/12 13:34:05;;;;;;;3.77;2.83;;;;;;;-145.06;100.00;60892.56;4865613;28;20108;-89
2021/11/12 13:36:44;;;;;;;4.78;3.03;;;;;;;-145.06;100.00;60892.56;4866764;28;20029;-89
2021/11/12 13:39:23;;;;;;;4.35;2.97;;;;;;;-145.06;100.00;60892.56;4881526;28;20029;-89
2021/11/12 13:42:02;;;;;;;6.27;4.10;;;;;;;-145.06;100.00;60892.56;4857344;28;20060;-89
2021/11/12 13:44:42;;;;;;;5.03;3.58;;;;;;;-145.06;100.00;60892.56;4874969;28;20462;-89
2021/11/12 13:47:22;;;;;;;4.75;2.90;;;;;;;-145.06;100.00;60892.56;4859464;28;20033;-89
2021/11/12 13:50:03;;;;;;;;;;;;;;;-145.06;100.00;60892.56;4880861;28;20111;-90
2021/11/12 13:52:42;;;;;;;4.45;2.83;;;;;;;-145.06;100.00;60892.56;4862796;28;19908;-90
2021/11/12 13:55:24;;;;;;;3.58;2.70;;;;;;;21.08;100.00;60892.56;4876619;28;20029;-89
2021/11/12 13:58:05;;;;;;;3.60;2.42;;;;;;;-145.06;100.00;60892.56;4868778;28;20029;-89
2021/11/12 14:00:44;;;;;;;4.38;3.00;;;;;;;-145.06;100.00;60892.56;4866442;28;20467;-89
2021/11/12 14:03:36;;;;;;;3.35;2.50;;;;;;;-145.06;100.00;60892.56;4860969;28;20396;-89
2021/11/12 14:06:17;;;;;;;3.83;2.65;;;;;;;15.88;100.00;60892.56;4865687;28;20041;-90
2021/11/12 14:09:02;;;;;;;3.92;2.63;;;;;;;-145.06;100.00;60892.56;4883281;28;20021;-89
2021/11/12 14:11:41;;;;;;;3.38;2.50;;;;;;;-145.06;100.00;60892.56;4864076;28;20360;-90
2021/11/12 14:14:23;;;;;;;4.47;2.83;;;;;;;-145.06;100.00;60892.56;4877823;28;20056;-89
2021/11/12 14:17:54;;;;;;;3.97;2.80;;;;;;;-145.06;100.00;60892.56;4875006;28;20268;-90
2021/11/12 14:20:34;;;;;;;4.32;2.88;;;;;;;-145.06;100.00;60892.56;4880440;28;20033;-90
2021/11/12 14:29:10;;;;;;;3.78;2.45;;;;;;;-145.06;100.00;60892.56;4877692;28;20021;-88
2021/11/12 14:35:03;;;;;;;3.92;2.85;;;;;;;-145.06;100.00;60892.56;4881676;28;20021;-90
2021/11/12 14:41:04;;;;;;;4.03;3.22;;;;;;;-145.06;100.00;60892.56;4877550;28;20033;-89
2021/11/12 14:49:32;;;;;;;4.10;3.03;;;;;;;-145.06;100.00;60892.56;4886342;28;20049;-89
2021/11/12 14:52:14;;;;;;;4.25;3.17;;;;;;;12.23;100.00;60892.56;4879056;28;20013;-90
2021/11/12 14:55:11;;;;;;;4.13;3.10;;;;;;;-145.06;100.00;60892.56;4857041;28;20021;-89
2021/11/12 14:57:50;;;;;;;4.32;3.17;;;;;;;15.88;100.00;60892.56;4878338;28;20517;-89
2021/11/12 15:00:29;;;;;;;4.07;2.70;;;;;;;15.88;100.00;60892.56;4868756;28;20025;-90
2021/11/12 15:03:09;;;;;;;3.83;2.67;;;;;;;-145.06;100.00;60892.56;4872971;28;20071;-89
2021/11/12 15:05:48;;;;;;;;;;;;;;;11.97;100.00;60892.56;4874290;28;20020;-90
2021/11/12 15:08:29;;;;;;;2.75;2.05;;;;;;;11.98;100.00;60892.56;4877891;28;20243;-90
2021/11/12 15:11:10;;;;;;;3.38;2.50;;;;;;;13.28;100.00;60892.56;4868444;28;20372;-89
2021/11/12 15:13:51;;;;;;;4.65;2.70;;;;;;;-145.06;100.00;60892.56;4870694;28;20064;-90
2021/11/12 15:16:33;;;;;;;4.47;3.10;;;;;;;11.78;100.00;60892.56;4868062;28;20025;-89
2021/11/12 15:19:15;;;;;;;4.03;2.45;;;;;;;11.70;100.00;60892.56;4868952;28;20061;-90
2021/11/12 15:25:06;;;;;;;3.83;2.63;;;;;;;-145.06;100.00;60892.56;4868484;28;21893;-90
2021/11/12 15:28:14;;;;;;;3.85;2.72;;;;;;;-145.06;100.00;60892.56;4867781;28;20029;-90
2021/11/12 15:30:54;;;;;;;3.92;2.72;;;;;;;-145.06;100.00;60892.56;4869996;28;20025;-89
2021/11/12 15:33:33;;;;;;;4.13;2.47;;;;;;;-145.06;100.00;60892.56;4867050;28;20060;-89
2021/11/12 15:36:15;;;;;;;4.90;2.85;;;;;;;-145.06;100.00;60892.56;4890217;28;20029;-90
2021/11/12 15:38:58;;;;;;;3.78;2.85;;;;;;;-145.06;100.00;60892.56;4867535;28;20033;-88
2021/11/12 15:44:37;;;;;;;3.30;2.42;;;;;;;-145.06;100.00;60892.56;4873426;28;20302;-90
2021/11/12 15:47:27;;;;;;;3.55;2.55;;;;;;;-145.06;100.00;60892.56;4870852;28;20490;-90
2021/11/12 15:50:11;;;;;;;3.85;2.60;;;;;;;-145.06;100.00;60892.56;4867190;28;20025;-89
2021/11/12 16:10:28;;;;;;;4.00;2.85;;;;;;;-145.06;100.00;60892.56;4869400;28;20045;-89
2021/11/12 16:27:16;;;;;;;2.75;2.17;;;;;;;-145.06;100.00;60892.56;4883463;28;20033;-89
2021/11/12 16:29:59;;;;;;;3.58;2.55;;;;;;;-145.06;100.00;60892.56;4877745;28;20025;-88
2021/11/12 16:32:47;;;;;;;3.88;2.88;;;;;;;-145.06;100.00;60892.56;4874722;28;20032;-89
2021/11/12 16:35:31;;;;;;;4.25;2.90;;;;;;;-145.06;100.00;60892.56;4869693;28;20084;-89
2021/11/12 16:38:17;;;;;;;5.90;3.15;;;;;;;-145.06;100.00;60892.56;4863930;28;20111;-90
2021/11/12 16:41:07;;;;;;;4.57;3.03;;;;;;;-145.06;100.00;60892.56;4869469;28;20024;-89
2021/11/12 16:46:48;;;;;;;4.18;2.72;;;;;;;-145.06;100.00;60892.56;4886526;28;20405;-89
2021/11/12 16:52:17;;;;;;;6.55;3.78;;;;;;;-145.06;100.00;60892.56;4864234;28;20543;-89
2021/11/12 17:03:24;;;;;;;5.47;3.83;;;;;;;-145.06;100.00;60892.56;4871744;28;20033;-89
2021/11/12 17:06:17;;;;;;;6.00;3.70;;;;;;;-145.06;100.00;60892.56;4873277;28;20029;-88
2021/11/12 17:17:45;;;;;;;5.05;3.40;;;;;;;9.22;100.00;60892.56;4879375;28;20028;-89
2021/11/12 17:47:10;;;;;;;3.70;2.63;;;;;;;-145.06;100.00;60892.56;4872961;28;20029;-89
2021/11/12 17:50:05;;;;;;;3.78;2.80;;;;;;;-145.06;100.00;60892.56;4864559;28;20068;-88
2021/11/12 21:44:43;;;;;;;1.65;1.50;;;;;;;-145.06;100.00;60892.56;4881565;28;20536;-88
2021/11/12 21:47:23;;;;;;;2.08;1.58;;;;;;;-145.06;100.00;60892.56;4885754;28;20033;-88
2021/11/12 21:50:03;;;;;;;2.13;1.80;;;;;;;-145.06;100.00;60892.56;4880814;28;20479;-89
2021/11/12 21:52:42;;;;;;;2.88;1.73;;;;;;;-145.06;100.00;60892.56;4874759;28;20033;-90
2021/11/12 21:55:21;;;;;;;2.70;1.55;;;;;;;-145.06;100.00;60892.56;4885381;28;20028;-89
2021/11/12 21:58:01;;;;;;;1.90;1.50;;;;;;;-145.06;100.00;60892.56;4886558;28;20037;-89
2021/11/12 22:00:41;;;;;;;2.20;1.65;;;;;;;-145.06;100.00;60892.56;4872168;28;20475;-89
2021/11/12 22:03:20;;;;;;;2.15;1.50;;;;;;;-145.06;100.00;60892.56;4875124;28;20065;-88
2021/11/12 22:06:00;;;;;;;1.70;1.40;;;;;;;-145.06;100.00;60892.56;4886482;28;20115;-88
2021/11/12 22:08:38;;;;;;;;;;;;;;;-145.06;100.00;60892.56;4876139;28;20347;-90